Pagina principală
METAR-TAF:

METAR-TAF

Aeroporturi :

NWS Office

Pohnpei, Micronezia

Latitudine: 06-58N, longitudine: 158-13E, elevație: 39 m

Observații meteo curente

Raportul a fost făcut în urmă cu 24 de minute, la 02:54 UTC
Vânt 2 kt de la Sud-vest
Temperatură 29°C
Umiditate 79%
Presiune 1009 hPa
Vizibilitate: 24.1 km
Nori împrăștiați la o înălțime de 1800 picior, Cumulus congestus.
Nori fragmentați la o înălțime de 13000 picior
Total acoperit la o înălțime de 30000 picior

METAR: PTTP 020254Z 22002KT 15SM SCT018TCU BKN130 OVC300 29/25 A2979 RMK TCU ALQDS SLP088 8/271 T02890251 57024

Ora: 14:18 (03:18 UTC)


TAF: lipsă

Observații și prognoze meteo pentru peste 4.000 de aeroporturi (rapoarte METAR și TAF).

Stațiile disponibile sunt reprezentate pe hartă prin puncte galbene și roșii.

Țineți indicatorul mouse-ului pe punctul dorit pentru a vedea denumirea stației.

Apoi, faceți clic pentru a vedea observațiile și prognozele meteorologice.

Pentru a schimba harta: Pentru mărire, faceți clic pe butoanele verzi cu cruce neagră; pentru micșorare, pe butonul verde cu o liniuță; pentru hărți învecinate, pe săgețile verzi.


METAR-TAF: